Time;durP1;ratioP1;P1;durP2;ratioP2;P2;SDS_P1;SDS_P2;PMS_P1;PMS_P2;Temp;Humidity;BMP_temperature;BMP_pressure;BME280_temperature;BME280_humidity;BME280_pressure;Samples;Min_cycle;Max_cycle;Signal;HPM_P1;HPM_P2
2023/09/29 00:00:17;;;;;;;20.58;6.53;;;16.30;99.90;;;;;;5073255;28;20082;-75
2023/09/29 00:02:45;;;;;;;18.73;6.28;;;16.30;99.90;;;;;;5073228;28;20093;-75
2023/09/29 00:05:11;;;;;;;21.15;6.25;;;16.20;99.90;;;;;;5073276;28;20152;-75
2023/09/29 00:07:40;;;;;;;19.70;6.18;;;16.20;99.90;;;;;;5073096;28;20045;-75
2023/09/29 00:10:10;;;;;;;22.70;7.50;;;16.10;99.90;;;;;;5073010;28;20054;-75
2023/09/29 00:12:39;;;;;;;17.42;6.38;;;16.20;99.90;;;;;;5073545;28;20029;-75
2023/09/29 00:15:06;;;;;;;22.10;7.15;;;16.10;99.90;;;;;;5056154;28;20429;-75
2023/09/29 00:17:32;;;;;;;17.60;6.28;;;16.10;99.90;;;;;;5072842;28;20036;-75
2023/09/29 00:19:58;;;;;;;22.35;7.63;;;16.10;99.90;;;;;;5056121;28;20085;-75
2023/09/29 00:22:24;;;;;;;25.88;6.82;;;16.10;99.90;;;;;;5073069;28;20040;-75
2023/09/29 00:24:50;;;;;;;19.85;6.68;;;16.10;99.90;;;;;;5072930;28;20481;-75
2023/09/29 00:27:15;;;;;;;21.45;6.70;;;16.20;99.90;;;;;;5072701;28;20082;-75
2023/09/29 00:29:42;;;;;;;21.77;6.70;;;16.10;99.90;;;;;;5072895;28;20036;-75
2023/09/29 00:32:07;;;;;;;27.50;6.82;;;16.20;99.90;;;;;;5072873;28;20083;-75
2023/09/29 00:34:33;;;;;;;25.55;6.38;;;16.20;99.90;;;;;;5055808;28;20517;-75
2023/09/29 00:36:59;;;;;;;17.38;5.88;;;16.20;99.90;;;;;;5073312;28;20036;-75
2023/09/29 00:39:25;;;;;;;18.45;6.60;;;16.30;99.90;;;;;;5071642;28;20501;-75
2023/09/29 00:41:51;;;;;;;23.73;7.25;;;16.20;99.90;;;;;;5072477;28;20067;-75
2023/09/29 00:44:16;;;;;;;20.45;7.03;;;16.30;99.90;;;;;;5072298;28;20517;-75
2023/09/29 00:46:43;;;;;;;24.38;7.15;;;16.30;99.90;;;;;;5072344;28;20044;-75
2023/09/29 00:49:08;;;;;;;24.65;7.68;;;16.30;99.90;;;;;;5072294;28;20496;-75
2023/09/29 00:51:35;;;;;;;16.45;6.10;;;16.30;99.90;;;;;;5072259;28;20048;-75
2023/09/29 00:54:03;;;;;;;20.88;7.20;;;16.30;99.90;;;;;;5072203;28;20047;-75
2023/09/29 00:56:29;;;;;;;18.60;6.35;;;16.20;99.90;;;;;;5055507;28;20516;-75
2023/09/29 00:58:58;;;;;;;21.42;6.82;;;16.30;99.90;;;;;;5072139;28;20135;-75
2023/09/29 01:01:24;;;;;;;21.75;6.57;;;16.20;99.90;;;;;;5072101;28;20520;-75
2023/09/29 01:03:50;;;;;;;21.75;7.03;;;16.20;99.90;;;;;;5072073;28;20041;-76
2023/09/29 01:06:17;;;;;;;22.55;7.47;;;16.20;99.90;;;;;;5072061;28;20037;-76
2023/09/29 01:08:44;;;;;;;20.05;7.47;;;16.20;99.90;;;;;;5072314;28;20048;-76
2023/09/29 01:11:10;;;;;;;20.95;6.40;;;16.20;99.90;;;;;;5055564;28;20113;-76
2023/09/29 01:13:40;;;;;;;24.83;7.10;;;16.20;99.90;;;;;;5071875;28;20457;-76
2023/09/29 01:16:07;;;;;;;22.08;7.25;;;16.20;99.90;;;;;;5071834;28;20511;-77
2023/09/29 01:18:34;;;;;;;16.95;6.70;;;16.20;99.90;;;;;;5071867;28;20044;-75
2023/09/29 01:21:00;;;;;;;22.00;7.68;;;16.20;99.90;;;;;;5071896;28;20528;-75
2023/09/29 01:23:32;;;;;;;20.30;7.28;;;16.10;99.90;;;;;;5072073;28;20407;-75
2023/09/29 01:25:58;;;;;;;20.98;6.93;;;16.20;99.90;;;;;;5072059;28;20040;-75
2023/09/29 01:28:24;;;;;;;23.25;7.25;;;16.10;99.90;;;;;;5071827;28;20043;-75
2023/09/29 01:30:53;;;;;;;25.63;6.97;;;16.10;99.90;;;;;;5071775;28;20094;-75
2023/09/29 01:33:21;;;;;;;22.13;6.45;;;16.10;99.90;;;;;;5071763;28;20446;-75
2023/09/29 01:35:49;;;;;;;21.45;6.80;;;16.10;99.90;;;;;;5071799;28;20044;-75
2023/09/29 01:38:14;;;;;;;20.08;6.88;;;16.10;99.90;;;;;;5071692;28;20072;-76
2023/09/29 01:40:41;;;;;;;19.48;7.03;;;16.20;99.90;;;;;;5071992;28;20079;-76
2023/09/29 01:43:06;;;;;;;21.52;7.13;;;16.20;99.90;;;;;;5054936;28;20037;-76
2023/09/29 01:45:32;;;;;;;19.38;5.72;;;16.20;99.90;;;;;;5071701;28;20385;-76
2023/09/29 01:48:00;;;;;;;18.40;6.38;;;16.20;99.90;;;;;;5054947;28;20076;-76
2023/09/29 01:50:26;;;;;;;22.35;6.63;;;16.20;99.90;;;;;;5073109;28;20086;-75
2023/09/29 01:52:52;;;;;;;20.45;6.25;;;16.20;99.90;;;;;;5075684;28;20409;-76
2023/09/29 01:55:24;;;;;;;22.15;6.55;;;16.20;99.90;;;;;;5075571;28;20040;-76
2023/09/29 01:57:55;;;;;;;21.92;5.75;;;16.20;99.90;;;;;;5075557;28;20059;-76
2023/09/29 02:00:29;;;;;;;19.27;6.25;;;16.20;99.90;;;;;;5075782;28;20040;-76
2023/09/29 02:02:55;;;;;;;18.25;6.40;;;16.20;99.90;;;;;;5075510;28;20055;-76
2023/09/29 02:05:21;;;;;;;17.77;6.25;;;16.30;99.90;;;;;;5075462;28;20047;-76
2023/09/29 02:07:48;;;;;;;18.52;5.88;;;16.30;99.90;;;;;;5075407;28;20036;-76
2023/09/29 02:10:18;;;;;;;17.85;5.38;;;16.30;99.90;;;;;;5058689;28;20512;-76
2023/09/29 02:12:56;;;;;;;15.93;5.80;;;16.30;99.90;;;;;;5075309;28;20048;-76
2023/09/29 02:15:21;;;;;;;20.95;5.75;;;16.30;99.90;;;;;;5075536;28;20056;-75
2023/09/29 02:17:50;;;;;;;22.50;6.45;;;16.30;99.90;;;;;;5075255;28;20405;-75
2023/09/29 02:20:18;;;;;;;16.08;5.45;;;16.30;99.90;;;;;;5058473;28;20043;-75
2023/09/29 02:22:44;;;;;;;21.30;6.00;;;16.30;99.90;;;;;;5075047;28;20448;-74
2023/09/29 02:25:11;;;;;;;17.10;6.13;;;16.30;99.90;;;;;;5074930;28;20033;-74
2023/09/29 02:27:37;;;;;;;22.48;7.03;;;16.30;99.90;;;;;;5075009;28;20049;-75
2023/09/29 02:30:04;;;;;;;17.75;5.95;;;16.30;99.90;;;;;;5074949;28;20055;-76
2023/09/29 02:32:29;;;;;;;20.60;6.18;;;16.30;99.90;;;;;;5058267;28;20055;-75
2023/09/29 02:34:55;;;;;;;18.60;5.97;;;16.40;99.90;;;;;;5074776;28;20437;-75
2023/09/29 02:37:21;;;;;;;19.02;5.35;;;16.40;99.90;;;;;;5074724;28;20052;-75
2023/09/29 02:39:47;;;;;;;16.25;5.32;;;16.40;99.90;;;;;;5074815;28;20032;-75
2023/09/29 02:42:13;;;;;;;15.52;5.30;;;16.30;99.90;;;;;;5074703;28;20044;-76
2023/09/29 02:44:39;;;;;;;22.13;6.40;;;16.40;99.90;;;;;;5074573;28;20079;-75
2023/09/29 02:47:05;;;;;;;19.85;5.88;;;16.40;99.90;;;;;;5074634;28;20037;-75
2023/09/29 02:49:33;;;;;;;19.08;5.35;;;16.30;99.90;;;;;;5075438;28;20040;-75
2023/09/29 02:52:03;;;;;;;19.77;5.60;;;16.40;99.90;;;;;;5074550;28;20497;-75
2023/09/29 02:54:30;;;;;;;18.33;5.55;;;16.40;99.90;;;;;;5074735;28;20091;-75
2023/09/29 02:56:56;;;;;;;23.95;6.07;;;16.40;99.90;;;;;;5074459;28;20048;-75
2023/09/29 02:59:24;;;;;;;20.65;5.47;;;16.40;99.90;;;;;;5074353;28;20049;-75
2023/09/29 03:01:50;;;;;;;17.58;5.22;;;16.40;99.90;;;;;;5073809;28;20036;-75
2023/09/29 03:04:15;;;;;;;18.70;5.65;;;16.40;99.90;;;;;;5074547;28;20037;-75
2023/09/29 03:06:41;;;;;;;20.40;5.18;;;16.40;99.90;;;;;;5074322;28;20429;-75
2023/09/29 03:09:10;;;;;;;15.15;5.55;;;16.40;99.90;;;;;;5074509;28;20090;-75
2023/09/29 03:11:39;;;;;;;17.98;5.20;;;16.40;99.90;;;;;;5074259;28;20049;-74
2023/09/29 03:14:06;;;;;;;15.05;5.10;;;16.40;99.90;;;;;;5074102;28;20051;-74
2023/09/29 03:16:32;;;;;;;17.13;5.57;;;16.50;99.90;;;;;;5074187;28;20086;-76
2023/09/29 03:18:58;;;;;;;16.20;4.88;;;16.40;99.90;;;;;;5074005;28;20043;-76
2023/09/29 03:21:24;;;;;;;19.10;5.32;;;16.50;99.90;;;;;;5074332;28;20032;-76
2023/09/29 03:23:50;;;;;;;15.85;5.65;;;16.50;99.90;;;;;;5074214;28;20061;-76
2023/09/29 03:26:17;;;;;;;21.10;5.75;;;16.50;99.90;;;;;;5073910;28;20033;-76
2023/09/29 03:28:43;;;;;;;15.55;5.47;;;16.50;99.90;;;;;;5073906;28;20051;-75
2023/09/29 03:31:09;;;;;;;16.05;5.53;;;16.50;99.90;;;;;;5073876;28;20036;-75
2023/09/29 03:33:35;;;;;;;15.02;5.55;;;16.50;99.90;;;;;;5073754;28;20048;-75
2023/09/29 03:36:01;;;;;;;16.23;5.38;;;16.50;99.90;;;;;;5073791;28;20070;-75
2023/09/29 03:38:27;;;;;;;17.95;5.45;;;16.50;99.90;;;;;;5073659;28;20044;-75
2023/09/29 03:40:53;;;;;;;18.73;5.57;;;16.50;99.90;;;;;;5073591;28;20037;-75
2023/09/29 03:43:25;;;;;;;17.50;5.70;;;16.50;99.90;;;;;;5073804;28;20083;-75
2023/09/29 03:45:51;;;;;;;17.42;5.53;;;16.50;99.90;;;;;;5073505;28;20389;-75
2023/09/29 03:48:17;;;;;;;18.40;5.85;;;16.50;99.90;;;;;;5073467;28;20036;-75
2023/09/29 03:50:43;;;;;;;14.00;5.22;;;16.50;99.90;;;;;;5073432;28;20044;-74
2023/09/29 03:53:09;;;;;;;21.38;6.40;;;16.50;99.90;;;;;;5073319;28;20076;-75
2023/09/29 03:55:35;;;;;;;17.45;6.20;;;16.50;99.90;;;;;;5073384;28;20087;-75
2023/09/29 03:58:01;;;;;;;18.67;5.80;;;16.50;99.90;;;;;;5073223;28;20052;-75
2023/09/29 04:00:26;;;;;;;19.45;6.30;;;16.60;99.90;;;;;;5073238;28;20040;-75
2023/09/29 04:02:52;;;;;;;20.00;5.75;;;16.50;99.90;;;;;;5056566;28;20072;-75
2023/09/29 04:05:19;;;;;;;18.67;5.70;;;16.50;99.90;;;;;;5073068;28;20036;-75
2023/09/29 04:07:45;;;;;;;20.00;6.30;;;16.60;99.90;;;;;;5073097;28;20041;-75
2023/09/29 04:10:12;;;;;;;21.13;5.97;;;16.60;99.90;;;;;;5073064;28;20086;-75
2023/09/29 04:12:40;;;;;;;20.83;5.75;;;16.60;99.90;;;;;;5073048;28;20120;-75
2023/09/29 04:15:07;;;;;;;18.00;6.32;;;16.60;99.90;;;;;;5056509;28;20405;-75
2023/09/29 04:17:34;;;;;;;21.38;6.63;;;16.60;99.90;;;;;;5072762;28;20079;-75
2023/09/29 04:20:01;;;;;;;18.10;7.30;;;16.70;99.90;;;;;;5072837;28;20059;-75
2023/09/29 04:22:27;;;;;;;14.77;5.82;;;16.60;99.90;;;;;;5073064;28;20040;-75
2023/09/29 04:24:53;;;;;;;18.52;6.10;;;16.60;99.90;;;;;;5072979;28;20119;-75
2023/09/29 04:27:18;;;;;;;16.38;6.25;;;16.70;99.90;;;;;;5056376;28;20508;-75
2023/09/29 04:29:44;;;;;;;15.02;6.35;;;16.70;99.90;;;;;;5072693;28;20041;-75
2023/09/29 04:32:10;;;;;;;15.95;6.25;;;16.70;99.90;;;;;;5072624;28;20032;-75
2023/09/29 04:34:36;;;;;;;20.63;7.60;;;16.70;99.90;;;;;;5072524;28;20070;-75
2023/09/29 04:37:01;;;;;;;18.80;7.28;;;16.70;99.90;;;;;;5072557;28;20086;-75
2023/09/29 04:39:27;;;;;;;21.88;6.35;;;16.80;99.90;;;;;;5072415;28;20036;-76
2023/09/29 04:41:52;;;;;;;16.92;6.57;;;16.70;99.90;;;;;;5072734;28;20036;-76
2023/09/29 04:44:18;;;;;;;18.10;7.10;;;16.80;99.90;;;;;;5072309;28;20503;-76
2023/09/29 04:46:44;;;;;;;18.90;7.22;;;16.80;99.90;;;;;;5072379;28;20039;-76
2023/09/29 04:49:10;;;;;;;14.15;7.00;;;16.80;99.90;;;;;;5055635;28;20051;-75
2023/09/29 04:51:36;;;;;;;19.40;7.32;;;16.80;99.90;;;;;;5072262;28;20036;-75
2023/09/29 04:54:02;;;;;;;20.88;7.30;;;16.80;99.90;;;;;;5072410;28;20083;-75
2023/09/29 04:56:28;;;;;;;17.05;6.60;;;16.80;99.90;;;;;;5072224;28;20493;-75
2023/09/29 04:58:54;;;;;;;17.55;7.10;;;16.80;99.90;;;;;;5072097;28;20127;-75
2023/09/29 05:01:20;;;;;;;21.30;7.97;;;16.80;99.90;;;;;;5072150;28;20040;-75
2023/09/29 05:03:50;;;;;;;17.80;7.05;;;16.80;99.90;;;;;;5072283;28;20028;-75
2023/09/29 05:06:16;;;;;;;17.00;7.07;;;16.80;99.90;;;;;;5072137;28;20044;-75
2023/09/29 05:08:42;;;;;;;17.45;6.95;;;16.90;99.90;;;;;;5072319;28;20040;-75
2023/09/29 05:11:07;;;;;;;14.52;6.38;;;16.80;99.90;;;;;;5072053;28;20076;-75
2023/09/29 05:13:34;;;;;;;16.98;6.65;;;16.90;99.90;;;;;;5071926;28;20036;-75
2023/09/29 05:16:00;;;;;;;17.58;6.47;;;16.90;99.90;;;;;;5071875;28;20048;-75
2023/09/29 05:18:25;;;;;;;13.98;6.82;;;16.90;99.90;;;;;;5071947;28;20047;-75
2023/09/29 05:20:51;;;;;;;15.27;6.57;;;16.90;99.90;;;;;;5071928;28;20036;-75
2023/09/29 05:23:17;;;;;;;15.65;6.85;;;16.90;99.90;;;;;;5072118;28;20043;-75
2023/09/29 05:25:48;;;;;;;14.27;6.68;;;16.90;99.90;;;;;;5071464;28;20439;-75
2023/09/29 05:28:14;;;;;;;17.05;7.10;;;17.00;99.90;;;;;;5072107;28;20072;-75
2023/09/29 05:30:43;;;;;;;20.10;7.03;;;17.00;99.90;;;;;;5071837;28;20460;-75
2023/09/29 05:33:08;;;;;;;18.00;6.40;;;17.00;99.90;;;;;;5071978;28;20404;-75
2023/09/29 05:35:34;;;;;;;17.23;6.15;;;17.00;99.90;;;;;;5071796;28;20123;-75
2023/09/29 05:38:00;;;;;;;18.85;6.53;;;17.00;99.90;;;;;;5071745;28;20049;-75
2023/09/29 05:40:26;;;;;;;15.85;5.85;;;17.10;99.90;;;;;;5071709;28;20044;-75
2023/09/29 05:42:51;;;;;;;15.70;6.05;;;17.10;99.90;;;;;;5071734;28;20039;-75
2023/09/29 05:45:17;;;;;;;14.65;5.50;;;17.10;99.90;;;;;;5071618;28;20123;-75
2023/09/29 05:47:43;;;;;;;13.50;5.78;;;17.10;99.90;;;;;;5071645;28;20084;-75
2023/09/29 05:50:09;;;;;;;12.65;5.90;;;17.10;99.90;;;;;;5072230;28;20036;-75
2023/09/29 05:52:35;;;;;;;13.13;5.25;;;17.10;99.90;;;;;;5071610;28;20497;-75
2023/09/29 05:55:01;;;;;;;16.00;6.20;;;17.10;99.90;;;;;;5071518;28;20049;-75
2023/09/29 05:57:27;;;;;;;11.18;5.50;;;17.10;99.90;;;;;;5071478;28;20036;-75
2023/09/29 05:59:54;;;;;;;12.63;5.60;;;17.10;99.90;;;;;;5072100;28;20039;-75
2023/09/29 06:02:20;;;;;;;14.80;5.40;;;17.10;99.90;;;;;;5071609;28;20094;-75
2023/09/29 06:04:46;;;;;;;15.43;5.78;;;17.10;99.90;;;;;;5071695;28;20079;-75
2023/09/29 06:07:11;;;;;;;14.15;5.85;;;17.10;99.90;;;;;;5071471;28;20489;-75
2023/09/29 06:09:37;;;;;;;12.05;5.80;;;17.10;99.90;;;;;;5071415;28;20127;-75
2023/09/29 06:12:02;;;;;;;10.23;5.40;;;17.10;99.90;;;;;;5071444;28;20044;-75
2023/09/29 06:14:31;;;;;;;17.38;6.20;;;17.10;99.90;;;;;;5071329;28;20049;-75
2023/09/29 06:16:58;;;;;;;11.15;5.97;;;17.10;99.90;;;;;;5071162;28;20045;-75
2023/09/29 06:19:24;;;;;;;15.00;5.93;;;17.20;99.90;;;;;;5071289;28;20051;-75
2023/09/29 06:21:49;;;;;;;13.82;5.82;;;17.20;99.90;;;;;;5071666;28;20048;-75
2023/09/29 06:24:15;;;;;;;13.73;5.55;;;17.20;99.90;;;;;;5071234;28;20041;-75
2023/09/29 06:26:40;;;;;;;13.55;5.57;;;17.10;99.90;;;;;;5071508;28;20082;-75
2023/09/29 06:29:06;;;;;;;12.95;6.03;;;17.10;99.90;;;;;;5071275;28;20043;-75
2023/09/29 06:31:31;;;;;;;11.70;5.63;;;17.10;99.90;;;;;;5071204;28;20040;-75
2023/09/29 06:33:57;;;;;;;12.80;5.45;;;17.20;99.90;;;;;;5071207;28;20044;-75
2023/09/29 06:36:23;;;;;;;11.32;5.55;;;17.20;99.90;;;;;;5071195;28;20131;-75
2023/09/29 06:38:48;;;;;;;13.98;6.47;;;17.20;99.90;;;;;;5074601;28;20035;-75
2023/09/29 06:41:14;;;;;;;13.48;6.30;;;17.20;99.90;;;;;;5075339;28;20481;-75
2023/09/29 06:43:40;;;;;;;11.27;5.55;;;17.20;99.90;;;;;;5074688;28;20498;-75
2023/09/29 06:46:06;;;;;;;10.43;5.30;;;17.20;99.90;;;;;;5075230;28;20040;-75
2023/09/29 06:48:33;;;;;;;16.30;6.03;;;17.20;99.90;;;;;;5074739;28;20412;-76
2023/09/29 06:50:59;;;;;;;12.35;5.03;;;17.20;99.90;;;;;;5074600;28;20523;-75
2023/09/29 06:53:29;;;;;;;11.90;5.43;;;17.20;99.90;;;;;;5074755;28;20499;-75
2023/09/29 06:55:55;;;;;;;11.38;4.82;;;17.20;99.90;;;;;;5057924;28;20047;-75
2023/09/29 06:58:20;;;;;;;11.98;4.90;;;17.30;99.90;;;;;;5074367;28;20044;-75
2023/09/29 07:00:46;;;;;;;14.05;4.95;;;17.30;99.90;;;;;;5057878;28;20035;-75
2023/09/29 07:03:12;;;;;;;9.15;4.97;;;17.30;99.90;;;;;;5074504;28;20131;-75
2023/09/29 07:05:38;;;;;;;9.18;4.82;;;17.30;99.90;;;;;;5057725;28;20047;-76
2023/09/29 07:08:05;;;;;;;9.43;4.78;;;17.30;99.90;;;;;;5074622;28;20040;-76
2023/09/29 07:10:30;;;;;;;12.18;4.32;;;17.30;99.90;;;;;;5074391;28;20080;-75
2023/09/29 07:12:56;;;;;;;16.30;5.22;;;17.40;99.90;;;;;;5074245;28;20079;-75
2023/09/29 07:15:22;;;;;;;12.30;4.68;;;17.40;99.90;;;;;;5074137;28;20037;-75
2023/09/29 07:17:48;;;;;;;13.13;5.13;;;17.40;99.90;;;;;;5074039;28;20044;-75
2023/09/29 07:20:13;;;;;;;11.80;4.80;;;17.40;99.90;;;;;;5074120;28;20079;-75
2023/09/29 07:22:39;;;;;;;9.30;4.03;;;17.40;99.90;;;;;;5057387;28;20036;-75
2023/09/29 07:25:05;;;;;;;9.70;4.50;;;17.40;99.90;;;;;;5074277;28;20173;-75
2023/09/29 07:27:31;;;;;;;9.27;4.20;;;17.50;99.90;;;;;;5057491;28;20477;-74
2023/09/29 07:29:57;;;;;;;7.75;3.83;;;17.50;99.90;;;;;;5074141;28;20037;-74
2023/09/29 07:32:25;;;;;;;7.32;3.83;;;17.60;99.90;;;;;;5074705;28;20384;-75
2023/09/29 07:34:50;;;;;;;8.80;3.90;;;17.60;99.90;;;;;;5074100;28;20083;-76
2023/09/29 07:37:16;;;;;;;11.00;4.18;;;17.60;99.90;;;;;;5074015;28;20076;-76
2023/09/29 07:39:42;;;;;;;9.57;4.22;;;17.80;99.90;;;;;;5073626;28;20497;-76
2023/09/29 07:42:09;;;;;;;7.82;4.22;;;17.70;99.90;;;;;;5057343;28;20063;-76
2023/09/29 07:44:35;;;;;;;10.90;4.20;;;17.80;99.90;;;;;;5073753;28;20040;-76
2023/09/29 07:47:00;;;;;;;8.50;4.10;;;17.90;99.90;;;;;;5073552;28;20041;-75
2023/09/29 07:49:27;;;;;;;11.07;4.25;;;17.90;99.90;;;;;;5073153;28;20047;-75
2023/09/29 07:51:53;;;;;;;7.22;3.70;;;18.00;99.90;;;;;;5056887;28;20037;-75
2023/09/29 07:54:20;;;;;;;9.05;3.85;;;18.10;99.90;;;;;;5073324;28;20131;-74
2023/09/29 07:56:49;;;;;;;11.68;3.75;;;18.20;99.90;;;;;;5073607;28;20030;-74
2023/09/29 07:59:15;;;;;;;8.40;3.53;;;18.30;99.90;;;;;;5073243;28;20115;-74
2023/09/29 08:01:43;;;;;;;6.82;3.60;;;18.30;99.90;;;;;;5073253;28;20048;-74
2023/09/29 08:04:10;;;;;;;6.32;3.70;;;18.40;99.90;;;;;;5073143;28;20040;-74
2023/09/29 08:06:35;;;;;;;8.82;3.55;;;18.60;99.90;;;;;;5073139;28;20389;-74
2023/09/29 08:09:03;;;;;;;8.57;3.53;;;18.80;99.90;;;;;;5073090;28;20127;-74
2023/09/29 08:11:29;;;;;;;10.55;3.78;;;19.00;99.90;;;;;;5073029;28;20044;-74
2023/09/29 08:13:55;;;;;;;6.47;3.38;;;19.20;99.90;;;;;;5073196;28;20036;-74
2023/09/29 08:16:21;;;;;;;6.85;3.33;;;19.50;99.90;;;;;;5072810;28;20044;-74
2023/09/29 08:18:46;;;;;;;8.20;3.65;;;19.80;99.90;;;;;;5056202;28;20129;-74
2023/09/29 08:21:12;;;;;;;7.95;3.22;;;20.00;99.90;;;;;;5072859;28;20071;-74
2023/09/29 08:23:39;;;;;;;7.47;2.97;;;20.20;99.90;;;;;;5072777;28;20119;-74
2023/09/29 08:26:05;;;;;;;6.00;2.92;;;20.20;99.90;;;;;;5072775;28;20040;-74
2023/09/29 08:28:30;;;;;;;8.18;2.97;;;20.30;99.90;;;;;;5072997;28;20059;-74
2023/09/29 08:30:56;;;;;;;6.13;3.15;;;20.40;99.90;;;;;;5072950;28;20131;-75
2023/09/29 08:33:23;;;;;;;7.78;3.08;;;20.70;99.90;;;;;;5072661;28;20405;-75
2023/09/29 08:35:49;;;;;;;5.53;2.65;;;20.80;99.90;;;;;;5072619;28;20037;-75
2023/09/29 08:38:14;;;;;;;5.50;2.78;;;21.00;99.90;;;;;;5072779;28;20090;-75
2023/09/29 08:40:41;;;;;;;6.10;2.83;;;21.20;99.90;;;;;;5072904;28;20401;-74
2023/09/29 08:43:10;;;;;;;6.63;2.72;;;21.40;99.90;;;;;;5072412;28;20040;-71
2023/09/29 08:45:41;;;;;;;8.57;2.90;;;21.40;99.90;;;;;;5072402;28;20049;-70
2023/09/29 08:48:11;;;;;;;3.92;2.50;;;21.50;99.90;;;;;;5072377;28;20485;-70
2023/09/29 08:50:41;;;;;;;8.38;3.20;;;21.70;99.90;;;;;;5072382;28;20439;-70
2023/09/29 08:53:14;;;;;;;8.05;2.72;;;21.90;99.90;;;;;;5072245;28;20049;-70
2023/09/29 08:55:40;;;;;;;10.18;2.95;;;21.80;99.90;;;;;;5072544;28;20044;-71
2023/09/29 08:58:07;;;;;;;8.13;2.45;;;21.60;99.90;;;;;;5072074;28;20451;-71
2023/09/29 09:00:33;;;;;;;4.60;2.17;;;21.60;99.90;;;;;;5071506;28;20040;-71
2023/09/29 09:03:01;;;;;;;9.10;3.08;;;21.60;99.90;;;;;;5072010;28;20036;-71
2023/09/29 09:05:28;;;;;;;7.35;2.80;;;21.40;99.90;;;;;;5072129;28;20047;-71
2023/09/29 09:07:54;;;;;;;6.40;2.70;;;21.20;99.90;;;;;;5072114;28;20036;-71
2023/09/29 09:10:32;;;;;;;5.60;2.92;;;21.00;99.90;;;;;;5072068;28;20048;-71
2023/09/29 09:12:59;;;;;;;6.53;2.80;;;21.00;99.90;;;;;;5072017;28;20044;-72
2023/09/29 09:15:25;;;;;;;7.85;2.85;;;20.80;99.90;;;;;;5072054;28;20094;-72
2023/09/29 09:17:50;;;;;;;6.38;2.72;;;20.70;99.90;;;;;;5071746;28;20044;-72
2023/09/29 09:20:17;;;;;;;5.95;2.85;;;20.80;99.90;;;;;;5072320;28;20483;-73
2023/09/29 09:22:44;;;;;;;6.43;3.15;;;20.90;99.90;;;;;;5072223;28;20040;-73
2023/09/29 09:25:12;;;;;;;8.52;3.22;;;20.90;99.90;;;;;;5072085;28;20504;-72
2023/09/29 09:27:39;;;;;;;6.03;2.30;;;20.80;99.90;;;;;;5071826;28;20132;-72
2023/09/29 09:30:05;;;;;;;6.22;2.80;;;20.70;99.90;;;;;;5071837;28;20048;-72
2023/09/29 09:32:31;;;;;;;5.65;2.63;;;20.60;99.90;;;;;;5071842;28;20093;-72
2023/09/29 09:34:57;;;;;;;6.35;2.53;;;20.60;99.90;;;;;;5071658;28;20044;-72
2023/09/29 09:37:27;;;;;;;6.55;2.47;;;20.60;99.90;;;;;;5073274;28;20048;-72
2023/09/29 09:39:59;;;;;;;7.93;2.85;;;20.60;99.90;;;;;;5071705;28;20072;-72
2023/09/29 09:42:28;;;;;;;6.68;2.90;;;20.70;99.90;;;;;;5071976;28;20037;-72
2023/09/29 09:44:57;;;;;;;8.23;2.70;;;20.70;99.90;;;;;;5054950;28;20040;-72
2023/09/29 09:47:25;;;;;;;6.13;2.63;;;20.80;99.90;;;;;;5071722;28;20036;-72
2023/09/29 09:49:56;;;;;;;5.40;2.55;;;20.70;99.90;;;;;;5071911;28;20501;-72
2023/09/29 09:52:29;;;;;;;5.15;2.63;;;20.60;99.90;;;;;;5072768;28;20130;-72
2023/09/29 09:54:58;;;;;;;5.70;2.92;;;20.60;99.90;;;;;;5071597;28;20045;-72
2023/09/29 09:57:34;;;;;;;7.57;3.10;;;20.60;99.90;;;;;;5071859;28;20049;-72
2023/09/29 10:00:10;;;;;;;6.60;2.72;;;20.60;99.90;;;;;;5071583;28;20084;-72
2023/09/29 10:02:51;;;;;;;8.38;2.50;;;20.80;99.90;;;;;;5071524;28;20044;-72
2023/09/29 10:05:30;;;;;;;5.55;2.75;;;21.00;99.90;;;;;;5071462;28;20516;-74
2023/09/29 10:08:01;;;;;;;9.02;3.17;;;21.00;99.90;;;;;;5071482;28;20049;-75
2023/09/29 10:10:41;;;;;;;6.25;2.50;;;21.00;99.90;;;;;;5071525;28;20041;-75
2023/09/29 10:13:11;;;;;;;5.82;2.90;;;20.90;99.90;;;;;;5075302;28;20493;-77
2023/09/29 10:15:39;;;;;;;7.63;3.20;;;20.80;99.90;;;;;;5058930;28;20101;-76
2023/09/29 10:18:20;;;;;;;5.60;2.65;;;20.70;99.90;;;;;;5075154;28;20040;-76
2023/09/29 10:20:54;;;;;;;6.40;2.83;;;20.70;99.90;;;;;;5075604;28;20082;-76
2023/09/29 10:23:20;;;;;;;6.65;3.00;;;20.60;99.90;;;;;;5058516;28;20032;-76
2023/09/29 10:25:57;;;;;;;5.63;3.00;;;20.50;99.90;;;;;;5058927;28;20041;-73
2023/09/29 10:28:34;;;;;;;6.45;3.08;;;20.50;99.90;;;;;;5075127;28;20036;-73
2023/09/29 10:31:08;;;;;;;7.18;3.22;;;20.50;99.90;;;;;;5075079;28;20085;-72
2023/09/29 10:33:50;;;;;;;7.10;3.13;;;20.40;99.90;;;;;;5074945;28;20080;-72
2023/09/29 10:36:16;;;;;;;6.28;2.83;;;20.40;99.90;;;;;;5075037;28;20052;-72
2023/09/29 10:38:43;;;;;;;7.88;3.00;;;20.30;99.90;;;;;;5074751;28;20040;-72
2023/09/29 10:41:09;;;;;;;10.73;3.13;;;20.20;99.90;;;;;;5074852;28;20044;-72
2023/09/29 10:43:36;;;;;;;6.97;3.28;;;20.20;99.90;;;;;;5074683;28;20093;-72
2023/09/29 10:46:08;;;;;;;9.68;3.40;;;20.20;99.90;;;;;;5075120;28;20149;-72
2023/09/29 10:48:42;;;;;;;9.05;3.20;;;20.10;99.90;;;;;;5074715;28;20097;-72
2023/09/29 10:51:08;;;;;;;8.52;3.25;;;20.00;99.90;;;;;;5074923;28;20511;-72
2023/09/29 10:53:36;;;;;;;11.40;3.40;;;20.00;99.90;;;;;;5074835;28;20044;-71
2023/09/29 10:56:03;;;;;;;8.55;3.42;;;20.00;99.90;;;;;;5075780;28;20041;-72
2023/09/29 10:58:37;;;;;;;10.40;3.10;;;20.00;99.90;;;;;;5074503;28;20041;-72
2023/09/29 11:01:04;;;;;;;9.18;3.20;;;20.00;99.90;;;;;;5074550;28;20490;-72
2023/09/29 11:03:30;;;;;;;10.07;4.10;;;20.10;99.90;;;;;;5074379;28;20143;-72
2023/09/29 11:05:58;;;;;;;10.77;3.58;;;20.20;99.90;;;;;;5074374;28;20036;-73
2023/09/29 11:08:34;;;;;;;11.52;3.40;;;20.20;99.90;;;;;;5074362;28;20071;-72
2023/09/29 11:11:02;;;;;;;7.13;3.38;;;20.30;99.90;;;;;;5074836;28;20169;-72
2023/09/29 11:13:29;;;;;;;10.65;3.65;;;20.30;99.90;;;;;;5074653;28;20040;-72
2023/09/29 11:15:56;;;;;;;7.68;3.30;;;20.30;99.90;;;;;;5074627;28;20075;-72
2023/09/29 11:18:33;;;;;;;9.35;3.38;;;20.30;99.90;;;;;;5074437;28;20037;-72
2023/09/29 11:21:04;;;;;;;7.53;3.55;;;20.30;99.90;;;;;;5074254;28;20044;-72
2023/09/29 11:23:40;;;;;;;7.93;3.53;;;20.30;99.90;;;;;;5056731;28;20563;-73
2023/09/29 11:26:09;;;;;;;7.03;3.22;;;20.30;99.90;;;;;;5057396;28;20028;-73
2023/09/29 11:28:47;;;;;;;8.27;3.53;;;20.30;99.90;;;;;;5074299;28;20063;-72
2023/09/29 11:31:16;;;;;;;8.93;3.67;;;20.30;99.90;;;;;;5073988;28;20040;-72
2023/09/29 11:33:44;;;;;;;7.07;3.60;;;20.20;99.90;;;;;;5073892;28;20047;-73
2023/09/29 11:36:14;;;;;;;9.52;3.50;;;20.20;99.90;;;;;;5073856;28;20037;-76
2023/09/29 11:38:40;;;;;;;6.95;3.80;;;20.10;99.90;;;;;;5073964;28;20398;-78
2023/09/29 11:41:05;;;;;;;7.32;3.65;;;20.10;99.90;;;;;;5073738;28;20043;-77
2023/09/29 11:43:35;;;;;;;6.97;3.72;;;20.00;99.90;;;;;;5073856;28;20048;-77
2023/09/29 11:46:01;;;;;;;9.73;4.10;;;20.00;99.90;;;;;;5057014;28;20404;-76
2023/09/29 11:48:27;;;;;;;8.55;4.28;;;20.00;99.90;;;;;;5073516;28;20082;-77
2023/09/29 11:50:53;;;;;;;7.90;3.90;;;20.10;99.90;;;;;;5057050;28;20082;-72
2023/09/29 11:53:19;;;;;;;8.48;3.97;;;20.00;99.90;;;;;;5073586;28;20052;-71
2023/09/29 11:55:45;;;;;;;9.65;4.07;;;20.10;99.90;;;;;;5073692;28;20136;-72
2023/09/29 11:58:11;;;;;;;7.70;3.72;;;20.20;99.90;;;;;;5073292;28;20460;-72
2023/09/29 12:00:37;;;;;;;8.48;3.83;;;20.30;99.90;;;;;;5073348;28;20070;-71
2023/09/29 12:03:05;;;;;;;8.75;4.47;;;20.40;99.90;;;;;;5073377;28;20068;-71
2023/09/29 12:05:32;;;;;;;10.98;4.38;;;20.50;99.90;;;;;;5073464;28;20106;-71
2023/09/29 12:07:57;;;;;;;9.80;4.28;;;20.50;99.90;;;;;;5073405;28;20397;-72
2023/09/29 12:10:23;;;;;;;9.32;4.57;;;20.60;99.90;;;;;;5073165;28;20520;-72
2023/09/29 12:12:48;;;;;;;7.80;4.03;;;20.60;99.90;;;;;;5073154;28;20123;-71
2023/09/29 12:15:16;;;;;;;7.93;4.00;;;20.60;99.90;;;;;;5073019;28;20037;-71
2023/09/29 12:17:41;;;;;;;8.15;4.00;;;20.60;99.90;;;;;;5073002;28;20056;-71
2023/09/29 12:20:10;;;;;;;8.60;3.90;;;20.60;99.90;;;;;;5072898;28;20037;-72
2023/09/29 12:22:35;;;;;;;7.38;3.97;;;20.60;99.90;;;;;;5056473;28;20036;-71
2023/09/29 12:25:01;;;;;;;7.30;4.57;;;20.60;99.90;;;;;;5072715;28;20532;-71
2023/09/29 12:27:26;;;;;;;12.02;5.28;;;20.50;99.90;;;;;;5072998;28;20047;-71
2023/09/29 12:29:52;;;;;;;9.18;5.20;;;20.50;99.90;;;;;;5072747;28;20040;-71
2023/09/29 12:32:18;;;;;;;9.80;4.95;;;20.40;99.90;;;;;;5072737;28;20033;-71
2023/09/29 12:34:43;;;;;;;11.95;5.75;;;20.40;99.90;;;;;;5072485;28;20044;-70
2023/09/29 12:37:09;;;;;;;8.77;5.85;;;20.20;99.90;;;;;;5072618;28;20541;-71
2023/09/29 12:39:34;;;;;;;14.80;6.70;;;20.20;99.90;;;;;;5072572;28;20044;-70